Time;durP1;ratioP1;P1;durP2;ratioP2;P2;SDS_P1;SDS_P2;PMS_P1;PMS_P2;Temp;Humidity;BMP_temperature;BMP_pressure;BME280_temperature;BME280_humidity;BME280_pressure;Samples;Min_cycle;Max_cycle;Signal;HPM_P1;HPM_P2
2023/01/28 00:00:46;;;;;;;13.55;6.95;;;0.40;99.90;;;;;;5088745;28;20043;-69
2023/01/28 00:03:11;;;;;;;10.93;6.35;;;0.30;99.90;;;;;;5092065;28;20040;-68
2023/01/28 00:05:37;;;;;;;14.77;6.70;;;0.30;99.90;;;;;;5092316;28;20329;-68
2023/01/28 00:08:03;;;;;;;16.23;7.35;;;0.40;99.90;;;;;;5093549;28;20089;-68
2023/01/28 00:10:28;;;;;;;11.75;6.75;;;0.40;99.90;;;;;;5087874;28;20031;-68
2023/01/28 00:12:54;;;;;;;14.60;7.50;;;0.40;99.90;;;;;;5094535;28;20024;-69
2023/01/28 00:15:19;;;;;;;11.32;6.60;;;0.30;99.90;;;;;;5092975;28;20028;-67
2023/01/28 00:17:45;;;;;;;11.15;6.57;;;0.30;99.90;;;;;;5087413;28;20077;-68
2023/01/28 00:20:11;;;;;;;13.25;8.48;;;0.40;99.90;;;;;;5092916;28;20035;-68
2023/01/28 00:22:39;;;;;;;10.70;7.00;;;0.30;99.90;;;;;;5092176;28;20183;-68
2023/01/28 00:25:05;;;;;;;11.70;6.97;;;0.30;99.90;;;;;;5092655;28;20477;-68
2023/01/28 00:27:30;;;;;;;9.93;6.70;;;0.30;99.90;;;;;;5093485;28;20046;-68
2023/01/28 00:29:56;;;;;;;10.27;6.55;;;0.30;99.90;;;;;;5093143;28;20027;-68
2023/01/28 00:32:21;;;;;;;10.13;6.25;;;0.40;99.90;;;;;;5093611;28;20388;-68
2023/01/28 00:34:49;;;;;;;11.00;7.13;;;0.40;99.90;;;;;;5091827;28;20111;-68
2023/01/28 00:37:14;;;;;;;13.10;6.95;;;0.40;99.90;;;;;;5093510;28;20047;-68
2023/01/28 00:39:40;;;;;;;16.30;8.88;;;0.30;99.90;;;;;;5084692;28;20041;-66
2023/01/28 00:42:05;;;;;;;10.95;7.35;;;0.30;99.90;;;;;;5081867;28;20115;-67
2023/01/28 00:44:31;;;;;;;11.63;6.72;;;0.30;99.90;;;;;;5093002;28;20036;-68
2023/01/28 00:46:57;;;;;;;11.95;6.50;;;0.30;99.90;;;;;;5092822;28;20047;-66
2023/01/28 00:49:22;;;;;;;10.25;6.10;;;0.30;99.90;;;;;;5092452;28;20476;-66
2023/01/28 00:51:48;;;;;;;11.38;6.57;;;0.20;99.90;;;;;;5092552;28;20035;-66
2023/01/28 00:54:14;;;;;;;12.13;7.45;;;0.20;99.90;;;;;;5092545;28;20059;-67
2023/01/28 00:56:39;;;;;;;11.52;7.10;;;0.20;99.90;;;;;;5081220;28;20036;-66
2023/01/28 00:59:05;;;;;;;10.15;6.35;;;0.20;99.90;;;;;;5092973;28;20020;-67
2023/01/28 01:01:30;;;;;;;9.90;6.65;;;0.20;99.90;;;;;;5094099;28;20058;-67
2023/01/28 01:04:01;;;;;;;11.85;6.60;;;0.20;99.90;;;;;;5091910;28;20602;-67
2023/01/28 01:06:34;;;;;;;11.00;6.47;;;0.20;99.90;;;;;;5092668;28;20032;-67
2023/01/28 01:09:01;;;;;;;9.90;6.45;;;0.20;99.90;;;;;;5091351;28;20618;-68
2023/01/28 01:11:26;;;;;;;10.25;6.35;;;0.20;99.90;;;;;;5093048;28;20036;-68
2023/01/28 01:13:55;;;;;;;10.88;6.82;;;0.30;99.90;;;;;;5088521;28;20040;-67
2023/01/28 01:16:22;;;;;;;12.30;6.93;;;0.40;99.90;;;;;;5092141;28;20158;-68
2023/01/28 01:18:51;;;;;;;11.13;6.68;;;0.30;99.90;;;;;;5092106;28;20050;-67
2023/01/28 01:21:18;;;;;;;12.45;7.05;;;0.30;99.90;;;;;;5094708;28;20423;-68
2023/01/28 01:23:44;;;;;;;10.57;6.25;;;0.20;99.90;;;;;;5093138;28;20349;-68
2023/01/28 01:26:10;;;;;;;10.63;6.40;;;0.20;99.90;;;;;;5092081;28;20481;-68
2023/01/28 01:28:36;;;;;;;9.52;6.15;;;0.30;99.90;;;;;;5100904;28;20357;-67
2023/01/28 01:31:05;;;;;;;9.38;5.72;;;0.30;99.90;;;;;;5091629;28;20027;-67
2023/01/28 01:33:31;;;;;;;10.67;6.23;;;0.20;99.90;;;;;;5088141;28;20043;-68
2023/01/28 01:35:57;;;;;;;10.48;6.45;;;0.20;99.90;;;;;;5090910;28;20024;-68
2023/01/28 01:38:23;;;;;;;9.95;6.35;;;0.20;99.90;;;;;;5092396;28;20089;-68
2023/01/28 01:40:50;;;;;;;12.02;6.47;;;0.20;99.90;;;;;;5090827;28;20028;-68
2023/01/28 01:43:18;;;;;;;9.93;5.95;;;0.30;99.90;;;;;;5074034;28;20052;-68
2023/01/28 01:45:49;;;;;;;9.40;6.13;;;0.20;99.90;;;;;;5090722;28;20551;-67
2023/01/28 01:48:18;;;;;;;9.35;5.95;;;0.20;99.90;;;;;;5086728;28;20385;-67
2023/01/28 01:51:08;;;;;;;9.52;6.15;;;0.20;99.90;;;;;;5089653;28;20084;-67
2023/01/28 01:53:41;;;;;;;11.02;6.10;;;0.30;99.90;;;;;;5090001;28;20127;-68
2023/01/28 01:56:09;;;;;;;9.93;5.93;;;0.40;99.90;;;;;;5091595;28;20471;-67
2023/01/28 01:58:38;;;;;;;9.20;5.97;;;0.40;99.90;;;;;;5100859;28;20036;-68
2023/01/28 02:01:06;;;;;;;9.50;6.13;;;0.40;99.90;;;;;;5090886;28;20084;-68
2023/01/28 02:03:40;;;;;;;9.23;5.57;;;0.30;99.90;;;;;;5091205;28;20476;-68
2023/01/28 02:06:07;;;;;;;10.23;6.35;;;0.20;99.90;;;;;;5088101;28;20040;-68
2023/01/28 02:08:33;;;;;;;10.20;5.60;;;0.30;99.90;;;;;;5092601;28;20044;-68
2023/01/28 02:11:04;;;;;;;8.25;5.95;;;0.30;99.90;;;;;;5089680;28;20116;-68
2023/01/28 02:13:35;;;;;;;8.30;5.55;;;0.30;99.90;;;;;;5091439;28;20492;-68
2023/01/28 02:16:03;;;;;;;8.35;5.45;;;0.30;99.90;;;;;;5089730;28;20024;-68
2023/01/28 02:18:30;;;;;;;8.70;5.95;;;0.20;99.90;;;;;;5091400;28;20032;-68
2023/01/28 02:21:11;;;;;;;9.50;6.15;;;0.30;99.90;;;;;;5085741;28;20111;-69
2023/01/28 02:23:54;;;;;;;10.43;5.80;;;0.30;99.90;;;;;;5089559;28;20031;-67
2023/01/28 02:26:36;;;;;;;9.27;5.57;;;0.30;99.90;;;;;;5090630;28;20435;-67
2023/01/28 02:29:37;;;;;;;8.48;5.80;;;0.20;99.90;;;;;;5090457;28;20462;-68
2023/01/28 02:32:16;;;;;;;9.43;6.00;;;0.20;99.90;;;;;;5088960;28;20035;-68
2023/01/28 02:35:11;;;;;;;9.10;6.30;;;0.10;99.90;;;;;;5090840;28;20115;-68
2023/01/28 02:37:59;;;;;;;9.18;5.85;;;0.20;99.90;;;;;;5064578;28;20086;-68
2023/01/28 02:40:29;;;;;;;8.55;5.43;;;0.20;99.90;;;;;;5088302;28;20455;-67
2023/01/28 02:42:56;;;;;;;8.70;5.35;;;0.20;99.90;;;;;;5100299;28;20024;-67
2023/01/28 02:47:56;;;;;;;7.63;5.20;;;0.20;99.90;;;;;;5090030;28;20052;-67
2023/01/28 02:48:13;;;;;;;7.43;5.05;;;0.20;99.90;;;;;;5087144;28;20534;-67
2023/01/28 02:50:58;;;;;;;9.82;4.95;;;0.40;99.90;;;;;;5090133;28;20040;-67
2023/01/28 02:53:44;;;;;;;8.23;5.07;;;0.40;99.90;;;;;;5091766;28;20446;-67
2023/01/28 02:56:28;;;;;;;7.30;4.47;;;0.40;99.90;;;;;;5090809;28;20044;-67
2023/01/28 02:59:32;;;;;;;7.10;4.80;;;0.50;99.90;;;;;;5085088;28;20451;-66
2023/01/28 03:02:12;;;;;;;9.05;5.07;;;0.50;99.90;;;;;;5096370;28;20640;-67
2023/01/28 03:04:45;;;;;;;7.10;4.83;;;0.50;99.90;;;;;;5090856;28;20101;-67
2023/01/28 03:07:12;;;;;;;9.98;5.18;;;0.50;99.90;;;;;;5085739;28;20542;-66
2023/01/28 03:09:40;;;;;;;8.07;5.35;;;0.40;99.90;;;;;;5093809;28;20484;-66
2023/01/28 03:38:47;;;;;;;12.02;7.05;;;0.30;99.90;;;;;;5089293;28;20051;-67
2023/01/28 03:41:22;;;;;;;13.65;7.45;;;0.20;99.90;;;;;;5079279;28;20028;-68
2023/01/28 03:43:49;;;;;;;10.18;6.65;;;0.30;99.90;;;;;;5082451;28;20392;-67
2023/01/28 03:46:15;;;;;;;11.38;6.75;;;0.30;99.90;;;;;;5086275;28;20119;-67
2023/01/28 03:48:41;;;;;;;11.80;7.32;;;0.20;99.90;;;;;;5099649;28;20028;-67
2023/01/28 03:51:07;;;;;;;11.23;7.03;;;0.20;99.90;;;;;;5097217;28;20027;-68
2023/01/28 03:53:32;;;;;;;12.85;7.28;;;0.20;99.90;;;;;;5090244;28;20981;-68
2023/01/28 03:55:58;;;;;;;11.50;7.78;;;0.20;99.90;;;;;;5088753;28;20089;-68
2023/01/28 04:01:09;;;;;;;11.60;7.47;;;0.30;99.90;;;;;;5094115;28;20035;-68
2023/01/28 04:03:34;;;;;;;15.77;8.10;;;0.20;99.90;;;;;;5093343;28;20381;-67
2023/01/28 04:06:03;;;;;;;12.07;7.93;;;0.30;99.90;;;;;;5092776;28;20060;-68
2023/01/28 04:08:29;;;;;;;12.70;8.32;;;0.30;99.90;;;;;;5098305;28;20035;-68
2023/01/28 04:10:55;;;;;;;14.32;8.00;;;0.30;99.90;;;;;;5098362;28;20576;-67
2023/01/28 04:13:21;;;;;;;14.52;7.93;;;0.30;99.90;;;;;;5093819;28;20046;-68
2023/01/28 04:15:47;;;;;;;14.35;9.07;;;0.30;99.90;;;;;;5092107;28;20058;-67
2023/01/28 04:18:12;;;;;;;13.88;8.32;;;0.30;99.90;;;;;;5093291;28;20071;-68
2023/01/28 04:20:38;;;;;;;13.75;8.65;;;0.30;99.90;;;;;;5092450;28;20428;-67
2023/01/28 04:23:06;;;;;;;14.00;9.15;;;0.20;99.90;;;;;;5093200;28;20047;-69
2023/01/28 04:25:32;;;;;;;15.68;9.73;;;0.30;99.90;;;;;;5092370;28;20044;-70
2023/01/28 04:27:58;;;;;;;15.40;9.32;;;0.30;99.90;;;;;;5092396;28;20032;-69
2023/01/28 04:30:24;;;;;;;14.20;9.23;;;0.30;99.90;;;;;;5094235;28;20068;-69
2023/01/28 04:32:49;;;;;;;13.07;9.25;;;0.30;99.90;;;;;;5093930;28;20035;-68
2023/01/28 04:35:16;;;;;;;14.18;9.32;;;0.20;99.90;;;;;;5089522;28;20458;-66
2023/01/28 04:37:42;;;;;;;15.02;9.30;;;0.20;99.90;;;;;;5091990;28;20040;-66
2023/01/28 04:40:08;;;;;;;15.18;8.93;;;0.20;99.90;;;;;;5083487;28;20076;-68
2023/01/28 04:42:34;;;;;;;15.07;9.52;;;0.20;99.90;;;;;;5106691;28;20035;-67
2023/01/28 04:45:00;;;;;;;15.27;9.68;;;0.10;99.90;;;;;;5092031;28;20054;-67
2023/01/28 04:47:25;;;;;;;14.95;9.20;;;0.10;99.90;;;;;;5093325;28;20028;-68
2023/01/28 04:49:51;;;;;;;16.33;9.90;;;0.10;99.90;;;;;;5091822;28;20054;-66
2023/01/28 04:52:16;;;;;;;17.38;10.98;;;0.20;99.90;;;;;;5092585;28;20097;-67
2023/01/28 04:54:42;;;;;;;17.27;9.77;;;0.20;99.90;;;;;;5091626;28;20022;-66
2023/01/28 04:57:07;;;;;;;15.63;9.90;;;0.30;99.90;;;;;;5093112;28;20469;-69
2023/01/28 04:59:33;;;;;;;14.45;9.63;;;0.20;99.90;;;;;;5094436;28;20051;-66
2023/01/28 05:01:59;;;;;;;25.42;10.32;;;0.30;99.90;;;;;;5092279;28;20661;-67
2023/01/28 05:04:24;;;;;;;14.82;9.55;;;0.20;99.90;;;;;;5092555;28;20393;-66
2023/01/28 05:06:50;;;;;;;14.80;9.20;;;0.30;99.90;;;;;;5093660;28;20468;-66
2023/01/28 05:09:15;;;;;;;15.23;9.32;;;0.30;99.90;;;;;;5091833;28;20036;-66
2023/01/28 05:11:41;;;;;;;15.75;10.30;;;0.30;99.90;;;;;;5091816;28;20103;-67
2023/01/28 05:14:07;;;;;;;19.48;10.40;;;0.30;99.90;;;;;;5089348;28;20453;-66
2023/01/28 05:16:33;;;;;;;18.65;9.73;;;0.30;99.90;;;;;;5094439;28;20144;-67
2023/01/28 05:19:00;;;;;;;17.65;10.50;;;0.30;99.90;;;;;;5092225;28;20032;-67
2023/01/28 05:21:26;;;;;;;22.23;10.38;;;0.30;99.90;;;;;;5092635;28;20049;-68
2023/01/28 05:23:51;;;;;;;16.33;10.05;;;0.20;99.90;;;;;;5105080;28;20035;-67
2023/01/28 05:26:17;;;;;;;17.77;9.95;;;0.10;99.90;;;;;;5093260;28;20040;-68
2023/01/28 05:28:42;;;;;;;18.83;11.05;;;0.10;99.90;;;;;;5091066;28;20032;-67
2023/01/28 05:31:10;;;;;;;17.15;10.18;;;0.00;99.90;;;;;;5086471;28;20388;-67
2023/01/28 05:33:36;;;;;;;15.63;9.63;;;0.00;99.90;;;;;;5077953;28;20032;-67
2023/01/28 05:36:01;;;;;;;15.85;10.32;;;0.00;99.90;;;;;;5090618;28;20047;-68
2023/01/28 05:38:27;;;;;;;16.67;9.90;;;0.00;99.90;;;;;;5091492;28;20039;-67
2023/01/28 05:40:52;;;;;;;16.52;9.88;;;0.00;99.90;;;;;;5098004;28;20031;-69
2023/01/28 05:43:18;;;;;;;17.42;10.23;;;0.00;99.90;;;;;;5089091;28;20376;-68
2023/01/28 05:45:44;;;;;;;16.95;10.07;;;-0.10;99.90;;;;;;5090510;28;20069;-67
2023/01/28 05:48:10;;;;;;;18.70;10.57;;;-0.10;99.90;;;;;;5091931;28;20035;-68
2023/01/28 05:50:35;;;;;;;15.13;10.13;;;-0.10;99.90;;;;;;5088562;28;20458;-67
2023/01/28 05:53:05;;;;;;;18.40;10.55;;;-0.10;99.90;;;;;;5090592;28;20103;-67
2023/01/28 05:55:30;;;;;;;16.23;10.38;;;-0.10;99.90;;;;;;5083729;28;20043;-68
2023/01/28 05:57:56;;;;;;;17.58;10.15;;;-0.10;99.90;;;;;;5090926;28;20615;-67
2023/01/28 06:00:22;;;;;;;16.58;9.95;;;0.00;99.90;;;;;;5090716;28;20028;-67
2023/01/28 06:02:49;;;;;;;17.10;10.30;;;-0.10;99.90;;;;;;5093962;28;20036;-67
2023/01/28 06:05:15;;;;;;;19.17;10.45;;;-0.10;99.90;;;;;;5090961;28;20070;-68
2023/01/28 06:07:47;;;;;;;17.25;10.98;;;-0.10;99.90;;;;;;5091279;28;20063;-67
2023/01/28 06:10:13;;;;;;;16.67;10.25;;;-0.10;99.90;;;;;;5086689;28;20040;-68
2023/01/28 06:12:39;;;;;;;18.38;10.80;;;-0.10;99.90;;;;;;5090502;28;20525;-67
2023/01/28 06:15:05;;;;;;;17.63;10.65;;;-0.10;99.90;;;;;;5090735;28;20032;-68
2023/01/28 06:17:31;;;;;;;15.80;10.30;;;-0.10;99.90;;;;;;5091502;28;20058;-68
2023/01/28 06:19:56;;;;;;;15.57;9.73;;;-0.10;99.90;;;;;;5089310;28;20465;-68
2023/01/28 06:22:22;;;;;;;17.33;10.50;;;-0.10;99.90;;;;;;5090935;28;20418;-68
2023/01/28 06:24:48;;;;;;;17.00;10.68;;;-0.10;99.90;;;;;;5089468;28;20040;-67
2023/01/28 06:27:13;;;;;;;16.95;11.20;;;-0.10;99.90;;;;;;5088321;28;20221;-68
2023/01/28 06:29:39;;;;;;;18.85;10.25;;;0.00;99.90;;;;;;5090315;28;20410;-67
2023/01/28 06:32:04;;;;;;;17.50;10.40;;;0.00;99.90;;;;;;5091106;28;20028;-67
2023/01/28 06:34:30;;;;;;;16.48;10.07;;;0.00;99.90;;;;;;5090541;28;20469;-67
2023/01/28 06:36:56;;;;;;;16.50;10.50;;;0.00;99.90;;;;;;5090002;28;20830;-67
2023/01/28 06:39:22;;;;;;;17.40;10.50;;;0.00;99.90;;;;;;5091563;28;20107;-68
2023/01/28 06:41:49;;;;;;;15.98;10.38;;;0.00;99.90;;;;;;5090868;28;20453;-67
2023/01/28 06:44:15;;;;;;;18.00;10.93;;;0.00;99.90;;;;;;5090482;28;20368;-68
2023/01/28 06:46:41;;;;;;;18.58;11.82;;;0.10;99.90;;;;;;5091097;28;20484;-67
2023/01/28 06:49:06;;;;;;;19.70;11.15;;;0.10;99.90;;;;;;5090521;28;20024;-68
2023/01/28 06:51:32;;;;;;;20.83;11.20;;;0.10;99.90;;;;;;5091380;28;20461;-67
2023/01/28 06:53:57;;;;;;;20.10;10.90;;;0.10;99.90;;;;;;5090213;28;20031;-68
2023/01/28 06:56:23;;;;;;;16.73;10.65;;;0.10;99.90;;;;;;5090971;28;20357;-68
2023/01/28 06:58:48;;;;;;;17.98;11.50;;;0.10;99.90;;;;;;5095007;28;20044;-68
2023/01/28 07:01:14;;;;;;;15.88;10.52;;;0.10;99.90;;;;;;5094729;28;20024;-69
2023/01/28 07:03:40;;;;;;;17.58;11.02;;;0.10;99.90;;;;;;5084678;28;20536;-68
2023/01/28 07:06:05;;;;;;;17.02;10.20;;;0.10;99.90;;;;;;5096853;28;20039;-69
2023/01/28 07:08:31;;;;;;;17.08;11.38;;;0.10;99.90;;;;;;5090755;28;20032;-69
2023/01/28 07:10:57;;;;;;;16.75;10.20;;;0.10;99.90;;;;;;5089012;28;20028;-70
2023/01/28 07:13:23;;;;;;;17.67;11.00;;;0.10;99.90;;;;;;5087374;28;20161;-69
2023/01/28 07:15:49;;;;;;;15.55;10.18;;;0.10;99.90;;;;;;5090823;28;20600;-67
2023/01/28 07:18:15;;;;;;;16.33;10.85;;;0.10;99.90;;;;;;5090212;28;20031;-68
2023/01/28 07:20:41;;;;;;;15.80;10.30;;;0.20;99.90;;;;;;5072028;28;20859;-68
2023/01/28 07:23:07;;;;;;;17.13;11.35;;;0.40;99.90;;;;;;5086156;28;20035;-68
2023/01/28 07:25:32;;;;;;;18.92;11.35;;;0.40;99.90;;;;;;5080554;28;20390;-68
2023/01/28 07:27:58;;;;;;;17.95;10.90;;;0.40;99.90;;;;;;5069025;28;20024;-67
2023/01/28 07:30:23;;;;;;;18.08;11.30;;;0.40;99.90;;;;;;5069892;28;20110;-69
2023/01/28 07:32:57;;;;;;;18.92;10.93;;;0.40;99.90;;;;;;5066220;28;20047;-67
2023/01/28 07:35:23;;;;;;;16.77;10.55;;;0.50;99.90;;;;;;5073685;28;20032;-67
2023/01/28 07:37:57;;;;;;;17.05;10.30;;;0.40;99.90;;;;;;5069896;28;20044;-67
2023/01/28 07:40:23;;;;;;;16.75;10.27;;;0.40;99.90;;;;;;5073595;28;20024;-67
2023/01/28 07:42:49;;;;;;;15.80;10.15;;;0.50;99.90;;;;;;5070625;28;20050;-66
2023/01/28 07:45:15;;;;;;;18.00;10.60;;;0.40;99.90;;;;;;5074628;28;20037;-68
2023/01/28 07:47:41;;;;;;;17.55;12.05;;;0.50;99.90;;;;;;5071568;28;20528;-66
2023/01/28 07:50:09;;;;;;;17.02;10.77;;;0.50;99.90;;;;;;5071929;28;20031;-69
2023/01/28 07:52:43;;;;;;;18.08;10.82;;;0.50;99.90;;;;;;5072277;28;20028;-67
2023/01/28 07:55:10;;;;;;;16.27;11.57;;;0.50;99.90;;;;;;5074847;28;20351;-68
2023/01/28 07:57:35;;;;;;;17.17;10.85;;;0.50;99.90;;;;;;5072547;28;20049;-68
2023/01/28 08:00:01;;;;;;;18.35;10.75;;;0.50;99.90;;;;;;5073251;28;20031;-68
2023/01/28 08:02:28;;;;;;;17.73;11.45;;;0.60;99.90;;;;;;5071804;28;20036;-68
2023/01/28 08:04:53;;;;;;;20.02;11.23;;;0.70;99.90;;;;;;5073879;28;20032;-72
2023/01/28 08:07:19;;;;;;;14.63;10.43;;;0.70;99.90;;;;;;5073417;28;20382;-67
2023/01/28 08:09:44;;;;;;;19.15;11.52;;;0.70;99.90;;;;;;5071943;28;20103;-67
2023/01/28 08:12:10;;;;;;;19.05;11.07;;;0.80;99.90;;;;;;5073043;28;20436;-67
2023/01/28 08:14:36;;;;;;;18.70;11.77;;;0.80;99.90;;;;;;5074084;28;20067;-67
2023/01/28 08:17:01;;;;;;;18.02;11.02;;;0.80;99.90;;;;;;5071122;28;20033;-67
2023/01/28 08:19:27;;;;;;;18.75;11.68;;;0.80;99.90;;;;;;5071382;28;20025;-67
2023/01/28 08:21:52;;;;;;;17.20;10.32;;;0.90;99.90;;;;;;5073221;28;20055;-67
2023/01/28 08:24:18;;;;;;;20.30;12.38;;;0.90;99.90;;;;;;5070559;28;20032;-67
2023/01/28 08:26:46;;;;;;;20.00;11.98;;;0.90;99.90;;;;;;5073495;28;20041;-67
2023/01/28 08:29:12;;;;;;;17.60;10.77;;;0.90;99.90;;;;;;5070656;28;20024;-67
2023/01/28 08:31:37;;;;;;;19.17;11.68;;;0.90;99.90;;;;;;5072511;28;20103;-67
2023/01/28 08:34:03;;;;;;;18.90;11.43;;;1.00;99.90;;;;;;5057361;28;20035;-67
2023/01/28 08:36:28;;;;;;;17.45;10.82;;;1.10;99.90;;;;;;5076288;28;20033;-67
2023/01/28 08:38:54;;;;;;;20.58;11.43;;;1.20;99.90;;;;;;5071550;28;20044;-67
2023/01/28 08:41:21;;;;;;;19.20;12.23;;;1.30;99.90;;;;;;5069757;28;20090;-67
2023/01/28 08:43:47;;;;;;;17.67;10.98;;;1.30;99.90;;;;;;5069285;28;20103;-66
2023/01/28 08:46:12;;;;;;;20.75;11.93;;;1.40;99.90;;;;;;5075508;28;20136;-67
2023/01/28 08:48:38;;;;;;;18.00;11.45;;;1.40;99.90;;;;;;5067531;28;20033;-67
2023/01/28 08:51:04;;;;;;;17.17;10.57;;;1.40;99.90;;;;;;5075199;28;20045;-67
2023/01/28 08:53:30;;;;;;;17.00;10.25;;;1.60;99.90;;;;;;5071483;28;20029;-67
2023/01/28 08:55:55;;;;;;;21.63;12.02;;;1.60;99.90;;;;;;5069325;28;20059;-67
2023/01/28 08:58:21;;;;;;;19.10;11.88;;;1.70;99.90;;;;;;5071763;28;20039;-67
2023/01/28 09:00:47;;;;;;;18.95;12.77;;;1.70;99.90;;;;;;5074122;28;20028;-67
2023/01/28 09:03:13;;;;;;;18.92;11.93;;;1.70;99.90;;;;;;5071517;28;20078;-67
2023/01/28 09:05:39;;;;;;;19.95;11.57;;;1.80;99.90;;;;;;5072108;28;20028;-66
2023/01/28 09:08:07;;;;;;;19.25;12.10;;;1.80;99.90;;;;;;5069824;28;20029;-66
2023/01/28 09:10:33;;;;;;;21.63;13.30;;;1.90;99.90;;;;;;5075495;28;20414;-68
2023/01/28 09:13:13;;;;;;;19.33;12.23;;;2.00;99.90;;;;;;5064136;28;20017;-68
2023/01/28 09:15:39;;;;;;;;;;;2.00;99.90;;;;;;5072453;28;20085;-66
2023/01/28 09:18:07;;;;;;;20.13;12.25;;;2.00;99.90;;;;;;5065944;28;20398;-67
2023/01/28 09:20:33;;;;;;;17.60;11.35;;;2.10;99.90;;;;;;5081449;28;20029;-67
2023/01/28 09:23:00;;;;;;;18.42;11.10;;;2.20;99.90;;;;;;5077489;28;20035;-67
2023/01/28 09:25:26;;;;;;;18.75;12.40;;;2.20;99.90;;;;;;5077260;28;20484;-67
2023/01/28 09:27:51;;;;;;;18.83;12.50;;;2.30;99.90;;;;;;5088326;28;20066;-70
2023/01/28 09:30:17;;;;;;;26.15;13.20;;;2.20;99.90;;;;;;5091850;28;20095;-70
2023/01/28 09:32:43;;;;;;;21.17;13.18;;;2.20;99.90;;;;;;5086723;28;20096;-70
2023/01/28 09:35:09;;;;;;;21.88;12.73;;;2.20;99.90;;;;;;5090735;28;20035;-72
2023/01/28 09:37:34;;;;;;;19.35;12.45;;;2.30;99.90;;;;;;5088910;28;20036;-71
2023/01/28 09:40:01;;;;;;;19.95;12.98;;;2.30;99.90;;;;;;5088775;28;20079;-67
2023/01/28 09:42:57;;;;;;;20.90;13.60;;;2.30;99.90;;;;;;5088663;28;20036;-67
2023/01/28 09:45:43;;;;;;;19.17;11.90;;;2.50;99.90;;;;;;5092185;28;20048;-67
2023/01/28 09:48:29;;;;;;;19.52;12.07;;;2.40;99.90;;;;;;5094770;28;20051;-67
2023/01/28 09:50:55;;;;;;;19.02;12.38;;;2.40;99.90;;;;;;5084264;28;20024;-67
2023/01/28 09:53:44;;;;;;;21.52;13.35;;;2.40;99.90;;;;;;5091402;28;20059;-67
2023/01/28 09:56:21;;;;;;;23.05;13.07;;;2.40;99.90;;;;;;5087717;28;20458;-64
2023/01/28 09:58:47;;;;;;;20.48;13.05;;;2.40;99.90;;;;;;5092349;28;20115;-68
2023/01/28 10:01:29;;;;;;;25.00;13.73;;;2.30;99.90;;;;;;5089792;28;20480;-67
2023/01/28 10:04:31;;;;;;;19.58;12.70;;;2.30;99.90;;;;;;5089011;28;20028;-67
2023/01/28 10:07:20;;;;;;;19.67;12.85;;;2.30;99.90;;;;;;5089367;28;20038;-65
2023/01/28 10:10:28;;;;;;;21.70;13.68;;;2.30;99.90;;;;;;5079113;28;20048;-67
2023/01/28 10:13:26;;;;;;;22.98;13.55;;;2.30;99.90;;;;;;5085080;28;20062;-69
2023/01/28 10:16:23;;;;;;;22.83;13.00;;;2.30;99.90;;;;;;5084410;28;20035;-69
2023/01/28 10:18:57;;;;;;;21.27;13.48;;;2.20;99.90;;;;;;5090538;28;20043;-65
2023/01/28 10:21:37;;;;;;;23.70;14.55;;;2.10;99.90;;;;;;5084767;28;20031;-67
2023/01/28 10:24:19;;;;;;;25.98;13.60;;;2.10;99.90;;;;;;5094716;28;20038;-68
2023/01/28 10:26:45;;;;;;;25.92;14.27;;;2.20;99.90;;;;;;5064179;28;20040;-67
2023/01/28 10:29:20;;;;;;;25.63;14.23;;;2.20;99.90;;;;;;5065988;28;20039;-67
2023/01/28 10:32:03;;;;;;;23.02;12.95;;;2.20;99.90;;;;;;5063749;28;20046;-68
2023/01/28 10:34:28;;;;;;;23.20;14.13;;;2.20;99.90;;;;;;5068831;28;20028;-66
2023/01/28 10:36:56;;;;;;;24.10;14.02;;;2.30;99.90;;;;;;5068013;28;20017;-67
2023/01/28 10:39:23;;;;;;;24.90;15.23;;;2.30;99.90;;;;;;5074026;28;20052;-67
2023/01/28 10:41:49;;;;;;;22.55;13.48;;;2.30;99.90;;;;;;5069418;28;20028;-67
2023/01/28 10:44:37;;;;;;;24.55;13.40;;;2.30;99.90;;;;;;5075263;28;20362;-67
2023/01/28 10:47:15;;;;;;;27.05;14.68;;;2.40;99.90;;;;;;5062469;28;20126;-67
2023/01/28 10:49:46;;;;;;;22.55;13.60;;;2.40;99.90;;;;;;5070067;28;20059;-68
2023/01/28 10:52:15;;;;;;;23.70;14.80;;;2.40;99.90;;;;;;5085268;28;20036;-68
2023/01/28 10:54:41;;;;;;;23.48;13.93;;;2.50;99.90;;;;;;5085676;28;20100;-67
2023/01/28 10:57:13;;;;;;;23.52;14.05;;;2.50;99.90;;;;;;5081477;28;20481;-67
2023/01/28 10:59:41;;;;;;;25.98;15.18;;;2.60;99.90;;;;;;5072840;28;20096;-67
2023/01/28 11:02:25;;;;;;;21.90;12.15;;;2.70;99.90;;;;;;5070562;28;20032;-67
2023/01/28 11:05:22;;;;;;;23.10;13.35;;;2.70;99.90;;;;;;5068099;28;20028;-67
2023/01/28 11:07:48;;;;;;;24.35;13.00;;;2.60;99.90;;;;;;5064141;28;20036;-67
2023/01/28 11:10:32;;;;;;;25.42;13.35;;;2.50;99.90;;;;;;5074159;28;20021;-67
2023/01/28 11:12:59;;;;;;;26.48;13.85;;;2.60;99.90;;;;;;5068709;28;20647;-68
2023/01/28 11:15:26;;;;;;;22.35;13.48;;;2.60;99.90;;;;;;5074094;28;20454;-68
2023/01/28 11:18:16;;;;;;;23.40;13.65;;;2.70;99.90;;;;;;5064691;28;20072;-68
2023/01/28 11:20:48;;;;;;;23.50;13.93;;;2.70;99.90;;;;;;5073178;28;20039;-68
2023/01/28 11:23:26;;;;;;;24.27;14.30;;;2.70;99.90;;;;;;5074943;28;20056;-68
2023/01/28 11:26:06;;;;;;;21.58;13.07;;;2.70;99.90;;;;;;5084847;28;20101;-67
2023/01/28 11:28:32;;;;;;;;;;;2.80;99.90;;;;;;5095624;28;20481;-67
2023/01/28 11:31:00;;;;;;;26.52;13.68;;;2.80;99.90;;;;;;5090601;28;19904;-68
2023/01/28 11:33:36;;;;;;;22.17;12.85;;;2.80;99.90;;;;;;5094245;28;20545;-67
2023/01/28 11:36:07;;;;;;;20.17;12.52;;;2.90;99.90;;;;;;5091860;28;20028;-68
2023/01/28 11:38:33;;;;;;;25.10;13.38;;;2.80;99.90;;;;;;5094357;28;20036;-67
2023/01/28 11:41:00;;;;;;;26.85;13.95;;;2.70;99.90;;;;;;5088243;28;20020;-67
2023/01/28 11:43:28;;;;;;;22.05;13.55;;;2.60;99.90;;;;;;5094348;28;20032;-67
2023/01/28 11:46:27;;;;;;;25.45;14.20;;;2.50;99.90;;;;;;5093396;28;20465;-67
2023/01/28 11:49:07;;;;;;;20.85;13.32;;;2.50;99.90;;;;;;5093015;28;20165;-67
2023/01/28 11:51:42;;;;;;;23.88;13.88;;;2.50;99.90;;;;;;5094767;28;20031;-67
2023/01/28 11:54:26;;;;;;;21.58;13.63;;;2.50;99.90;;;;;;5093944;28;20120;-67
2023/01/28 11:57:11;;;;;;;32.60;17.52;;;2.50;99.90;;;;;;5093880;28;20166;-68
2023/01/28 11:59:53;;;;;;;33.70;16.73;;;2.40;99.90;;;;;;5092721;28;20024;-68
2023/01/28 12:02:41;;;;;;;36.30;18.00;;;2.50;99.90;;;;;;5089992;28;20023;-67
2023/01/28 12:05:25;;;;;;;40.22;17.73;;;2.50;99.90;;;;;;5094325;28;20024;-67
2023/01/28 12:07:54;;;;;;;30.88;15.57;;;2.50;99.90;;;;;;5095818;28;20126;-68
2023/01/28 12:10:38;;;;;;;32.83;15.07;;;2.50;99.90;;;;;;5093799;28;20043;-67
2023/01/28 12:13:15;;;;;;;24.20;13.68;;;2.50;99.90;;;;;;5093682;28;20448;-68
2023/01/28 12:15:50;;;;;;;26.30;14.20;;;2.40;99.90;;;;;;5093267;28;20059;-67
2023/01/28 12:18:28;;;;;;;24.90;13.82;;;2.40;99.90;;;;;;5089739;28;20040;-67
2023/01/28 12:21:09;;;;;;;25.05;14.32;;;2.40;99.90;;;;;;5092665;28;20145;-68
2023/01/28 12:23:53;;;;;;;25.38;14.45;;;2.30;99.90;;;;;;5093978;28;20106;-67
2023/01/28 12:26:56;;;;;;;25.85;15.30;;;2.30;99.90;;;;;;5099668;28;20062;-68
2023/01/28 12:29:46;;;;;;;26.75;14.38;;;2.30;99.90;;;;;;5093394;28;20366;-68
2023/01/28 12:32:30;;;;;;;25.92;14.07;;;2.20;99.90;;;;;;5093950;28;20075;-67
2023/01/28 12:35:31;;;;;;;28.85;15.30;;;2.10;99.90;;;;;;5088665;28;20511;-68
2023/01/28 12:38:18;;;;;;;28.92;15.85;;;2.10;99.90;;;;;;5087772;28;20678;-67
2023/01/28 12:40:53;;;;;;;28.35;16.00;;;2.20;99.90;;;;;;5089959;28;20426;-68
2023/01/28 12:43:37;;;;;;;28.60;15.90;;;2.20;99.90;;;;;;5086438;28;20031;-68
2023/01/28 12:46:32;;;;;;;33.05;16.52;;;2.20;99.90;;;;;;5088823;28;20059;-68
2023/01/28 12:49:16;;;;;;;27.30;14.73;;;2.20;99.90;;;;;;5080364;28;20047;-67
2023/01/28 12:51:42;;;;;;;28.63;15.40;;;2.30;99.90;;;;;;5100467;28;20077;-67
2023/01/28 12:54:24;;;;;;;26.48;13.98;;;2.30;99.90;;;;;;5088620;28;20040;-67
2023/01/28 12:56:53;;;;;;;24.58;13.48;;;2.30;99.90;;;;;;5092233;28;20024;-67
2023/01/28 12:59:29;;;;;;;24.80;14.52;;;2.40;99.90;;;;;;5092884;28;20039;-68
2023/01/28 13:02:10;;;;;;;24.98;13.00;;;2.30;99.90;;;;;;5092040;28;20035;-68
2023/01/28 13:05:07;;;;;;;21.70;12.35;;;2.50;99.90;;;;;;5092291;28;20024;-67
2023/01/28 13:07:55;;;;;;;22.15;12.32;;;2.40;99.90;;;;;;5092861;28;20036;-69
2023/01/28 13:10:49;;;;;;;23.27;12.38;;;2.40;99.90;;;;;;5095217;28;20031;-68
2023/01/28 13:13:36;;;;;;;23.45;12.32;;;2.40;99.90;;;;;;5073881;28;20076;-68
2023/01/28 13:16:04;;;;;;;20.23;11.27;;;2.50;99.90;;;;;;5088052;28;20039;-68
2023/01/28 13:18:39;;;;;;;20.05;10.95;;;2.40;99.90;;;;;;5092588;28;20075;-68
2023/01/28 13:21:34;;;;;;;18.08;11.25;;;2.30;99.90;;;;;;5100844;28;20036;-68
2023/01/28 13:24:09;;;;;;;18.17;10.35;;;2.30;99.90;;;;;;5076291;28;20036;-68
2023/01/28 13:26:53;;;;;;;13.93;9.13;;;2.30;99.90;;;;;;5091312;28;20056;-68
2023/01/28 13:29:29;;;;;;;19.38;9.27;;;2.30;99.90;;;;;;5089925;28;20050;-68
2023/01/28 13:31:58;;;;;;;16.48;8.15;;;2.20;99.90;;;;;;5091996;28;20028;-68